createdAt,value
2022-11-29T00:01:40.895Z,6.22
2022-11-29T00:04:13.565Z,6.29
2022-11-29T00:06:46.239Z,6.24
2022-11-29T00:09:19.126Z,6.31
2022-11-29T00:12:10.534Z,6.32
2022-11-29T00:14:43.320Z,6.34
2022-11-29T00:17:16.186Z,6.33
2022-11-29T00:19:48.810Z,6.31
2022-11-29T00:22:23.597Z,6.32
2022-11-29T00:24:56.299Z,6.29
2022-11-29T00:27:29.100Z,6.31
2022-11-29T00:30:02.011Z,6.31
2022-11-29T00:32:35.714Z,6.30
2022-11-29T00:35:09.953Z,6.29
2022-11-29T00:37:42.745Z,6.28
2022-11-29T00:40:15.423Z,6.28
2022-11-29T00:42:48.208Z,6.26
2022-11-29T00:45:20.915Z,6.25
2022-11-29T00:47:53.528Z,6.24
2022-11-29T00:50:26.288Z,6.24
2022-11-29T00:52:58.911Z,6.22
2022-11-29T00:55:31.547Z,6.22
2022-11-29T00:58:04.382Z,6.22
2022-11-29T01:00:37.227Z,6.19
2022-11-29T01:03:10.192Z,6.19
2022-11-29T01:05:43.554Z,6.16
2022-11-29T01:08:17.388Z,6.15
2022-11-29T01:10:49.992Z,6.13
2022-11-29T01:13:22.648Z,6.11
2022-11-29T01:15:57.514Z,6.10
2022-11-29T01:18:30.942Z,6.08
2022-11-29T01:21:09.518Z,6.06
2022-11-29T01:23:44.589Z,6.02
2022-11-29T01:26:24.752Z,6.03
2022-11-29T01:28:59.399Z,6.02
2022-11-29T01:31:37.921Z,6.02
2022-11-29T01:34:11.232Z,6.02
2022-11-29T01:36:43.966Z,5.99
2022-11-29T01:39:16.620Z,6.03
2022-11-29T01:41:49.356Z,6.02
2022-11-29T01:44:21.943Z,6.00
2022-11-29T01:46:56.143Z,6.01
2022-11-29T01:49:37.978Z,6.02
2022-11-29T01:52:23.540Z,6.00
2022-11-29T01:55:01.782Z,5.99
2022-11-29T01:57:39.230Z,5.96
2022-11-29T02:00:17.373Z,6.00
2022-11-29T02:03:00.306Z,6.02
2022-11-29T02:05:33.708Z,5.96
2022-11-29T02:08:09.803Z,5.82
2022-11-29T02:11:15.472Z,5.96
2022-11-29T02:14:11.794Z,6.05
2022-11-29T02:17:01.706Z,6.13
2022-11-29T02:20:24.847Z,6.14
2022-11-29T02:23:26.359Z,6.17
2022-11-29T02:26:50.759Z,5.99
2022-11-29T02:30:08.760Z,6.17
2022-11-29T02:32:41.184Z,6.21
2022-11-29T02:35:52.626Z,6.08
2022-11-29T02:38:54.012Z,6.20
2022-11-29T02:41:40.651Z,6.27
2022-11-29T02:44:27.810Z,6.27
2022-11-29T02:47:13.753Z,6.27
2022-11-29T02:50:19.864Z,6.26
2022-11-29T02:53:17.472Z,6.16
2022-11-29T02:56:14.259Z,6.25
2022-11-29T02:59:23.784Z,6.25
2022-11-29T03:02:37.897Z,6.20
2022-11-29T03:05:25.227Z,6.24
2022-11-29T03:08:25.233Z,6.21
2022-11-29T03:11:39.828Z,6.14
2022-11-29T03:14:26.927Z,6.12
2022-11-29T03:17:51.481Z,6.09
2022-11-29T03:20:38.436Z,5.93
2022-11-29T03:23:33.785Z,5.82
2022-11-29T03:26:14.590Z,5.81
2022-11-29T03:29:27.064Z,5.78
2022-11-29T03:32:13.767Z,5.85
2022-11-29T03:35:18.362Z,5.78
2022-11-29T03:38:36.251Z,5.61
2022-11-29T03:41:43.268Z,5.65
2022-11-29T03:44:30.148Z,5.53
2022-11-29T03:47:16.319Z,5.53
2022-11-29T03:50:02.547Z,5.56
2022-11-29T03:52:49.928Z,5.50
2022-11-29T03:55:41.097Z,5.58
2022-11-29T03:58:28.977Z,5.59
2022-11-29T04:01:22.480Z,5.57
2022-11-29T04:04:48.153Z,5.57
2022-11-29T04:07:33.583Z,5.51
2022-11-29T04:10:34.797Z,5.56
2022-11-29T04:13:54.272Z,5.57
2022-11-29T04:17:14.770Z,5.64
2022-11-29T04:20:39.145Z,5.67
2022-11-29T04:23:46.765Z,5.58
2022-11-29T04:26:38.470Z,5.62
2022-11-29T04:29:23.914Z,5.61
2022-11-29T04:32:19.117Z,5.53
2022-11-29T04:35:33.794Z,5.58
2022-11-29T04:38:15.441Z,5.54
2022-11-29T04:41:15.925Z,5.52
2022-11-29T04:43:57.520Z,5.46
2022-11-29T04:46:39.905Z,5.45
2022-11-29T04:49:50.636Z,5.44
2022-11-29T04:52:30.813Z,5.17
2022-11-29T04:55:43.056Z,5.17
2022-11-29T04:58:44.200Z,5.20
2022-11-29T05:01:38.911Z,5.31
2022-11-29T05:04:21.486Z,5.22
2022-11-29T05:07:19.294Z,5.26
2022-11-29T05:10:29.111Z,5.28
2022-11-29T05:13:40.912Z,5.20
2022-11-29T05:16:45.760Z,5.30
2022-11-29T05:19:36.108Z,5.31
2022-11-29T05:22:55.991Z,5.30
2022-11-29T05:25:42.122Z,5.34
2022-11-29T05:28:31.696Z,5.33
2022-11-29T05:31:35.059Z,5.16
2022-11-29T05:34:30.306Z,5.27
2022-11-29T05:37:15.017Z,5.21
2022-11-29T05:40:34.710Z,5.29
2022-11-29T05:43:37.028Z,5.22
2022-11-29T05:46:28.538Z,5.32
2022-11-29T05:49:22.341Z,5.20
2022-11-29T05:52:29.742Z,5.02
2022-11-29T05:55:44.344Z,5.08
2022-11-29T05:58:35.469Z,5.18
2022-11-29T06:01:29.380Z,5.18
2022-11-29T06:04:17.828Z,5.22
2022-11-29T06:07:02.708Z,5.31
2022-11-29T06:09:48.797Z,5.33
2022-11-29T06:12:24.696Z,5.32
2022-11-29T06:15:48.504Z,5.16
2022-11-29T06:19:08.841Z,5.33
2022-11-29T06:22:09.752Z,5.41
2022-11-29T06:25:42.707Z,5.46
2022-11-29T06:28:44.461Z,5.44
2022-11-29T06:31:39.741Z,5.44
2022-11-29T06:34:36.827Z,5.54
2022-11-29T06:37:28.894Z,5.55
2022-11-29T06:40:02.198Z,5.60
2022-11-29T06:42:34.825Z,5.66
2022-11-29T06:45:10.653Z,5.70
2022-11-29T06:47:53.022Z,5.73
2022-11-29T06:50:49.913Z,5.78
2022-11-29T06:53:51.777Z,5.81
2022-11-29T06:56:49.456Z,5.80
2022-11-29T06:59:52.732Z,5.75
2022-11-29T07:02:55.904Z,5.80
2022-11-29T07:05:31.685Z,5.82
2022-11-29T07:08:12.748Z,5.84
2022-11-29T07:10:50.105Z,5.84
2022-11-29T07:13:23.841Z,5.88
2022-11-29T07:16:28.484Z,5.88
2022-11-29T07:19:31.761Z,5.93
2022-11-29T07:22:37.782Z,5.84
2022-11-29T07:25:53.110Z,5.77
2022-11-29T07:29:13.569Z,5.84
2022-11-29T07:32:17.110Z,5.99
2022-11-29T07:35:04.285Z,6.09
2022-11-29T07:38:06.449Z,6.11
2022-11-29T07:41:40.717Z,6.08
2022-11-29T07:44:30.710Z,6.04
2022-11-29T07:47:03.341Z,6.07
2022-11-29T07:49:36.105Z,6.10
2022-11-29T07:52:14.738Z,6.11
2022-11-29T07:54:47.845Z,6.11
2022-11-29T07:57:20.783Z,6.12
2022-11-29T07:59:53.440Z,6.08
2022-11-29T08:02:31.333Z,6.19
2022-11-29T08:05:04.590Z,6.06
2022-11-29T08:07:39.765Z,6.24
2022-11-29T08:10:16.883Z,6.30
2022-11-29T08:12:51.766Z,6.41
2022-11-29T08:15:25.950Z,6.36
2022-11-29T08:17:58.657Z,6.42
2022-11-29T08:20:31.382Z,6.42
2022-11-29T08:23:04.098Z,6.33
2022-11-29T08:25:37.002Z,6.46
2022-11-29T08:28:10.178Z,6.47
2022-11-29T08:30:42.870Z,6.37
2022-11-29T08:33:15.484Z,6.47
2022-11-29T08:35:48.198Z,6.20
2022-11-29T08:38:20.785Z,6.20
2022-11-29T08:40:53.557Z,6.22
2022-11-29T08:43:26.202Z,6.22
2022-11-29T08:45:59.347Z,6.43
2022-11-29T08:48:32.169Z,6.54
2022-11-29T08:51:06.480Z,6.53
2022-11-29T08:53:42.052Z,6.62
2022-11-29T08:59:13.616Z,6.76
2022-11-29T09:01:46.340Z,6.59
2022-11-29T09:04:19.032Z,6.64
2022-11-29T09:06:51.862Z,6.75
2022-11-29T09:09:24.614Z,6.87
2022-11-29T09:11:57.306Z,6.84
2022-11-29T09:14:30.919Z,6.75
2022-11-29T09:17:03.708Z,6.84
2022-11-29T09:19:36.547Z,6.94
2022-11-29T09:22:09.500Z,6.85
2022-11-29T09:24:45.422Z,6.99
2022-11-29T09:27:18.240Z,6.77
2022-11-29T09:29:51.151Z,6.89
2022-11-29T09:32:24.002Z,6.68
2022-11-29T09:34:56.663Z,6.76
2022-11-29T09:37:29.459Z,6.89
2022-11-29T09:40:02.232Z,6.87
2022-11-29T09:43:04.785Z,6.94
2022-11-29T09:45:45.422Z,7.03
2022-11-29T09:49:03.166Z,6.93
2022-11-29T09:51:55.339Z,7.25
2022-11-29T09:55:10.143Z,6.95
2022-11-29T09:57:50.547Z,6.92
2022-11-29T10:00:23.429Z,7.01
2022-11-29T10:03:16.987Z,6.58
2022-11-29T10:05:57.692Z,7.07
2022-11-29T10:08:43.198Z,6.97
2022-11-29T10:11:56.508Z,6.91
2022-11-29T10:14:56.231Z,6.98
2022-11-29T10:17:44.448Z,6.81
2022-11-29T10:20:25.567Z,6.73
2022-11-29T10:23:16.089Z,6.78
2022-11-29T10:25:52.916Z,7.06
2022-11-29T10:28:32.027Z,7.31
2022-11-29T10:31:33.239Z,6.97
2022-11-29T10:34:30.953Z,7.54
2022-11-29T10:37:04.407Z,7.47
2022-11-29T10:39:47.834Z,7.24
2022-11-29T10:42:43.410Z,7.03
2022-11-29T10:45:19.342Z,7.24
2022-11-29T10:47:56.625Z,7.13
2022-11-29T10:50:34.406Z,6.97
2022-11-29T10:53:13.645Z,7.10
2022-11-29T10:55:55.270Z,7.07
2022-11-29T10:58:30.817Z,6.90
2022-11-29T11:01:08.815Z,7.15
2022-11-29T11:03:54.079Z,6.83
2022-11-29T11:06:42.146Z,6.81
2022-11-29T11:10:04.214Z,6.53
2022-11-29T11:12:46.586Z,6.49
2022-11-29T11:15:32.050Z,6.81
2022-11-29T11:18:18.864Z,6.78
2022-11-29T11:20:57.161Z,6.59
2022-11-29T11:23:42.372Z,6.74
2022-11-29T11:26:15.464Z,6.86
2022-11-29T11:28:59.491Z,6.85
2022-11-29T11:31:37.909Z,6.96
2022-11-29T11:34:26.205Z,6.78
2022-11-29T11:37:29.290Z,6.83
2022-11-29T11:40:29.226Z,6.69
2022-11-29T11:43:03.225Z,6.60
2022-11-29T11:45:38.653Z,6.48
2022-11-29T11:48:16.540Z,6.81
2022-11-29T11:50:58.238Z,7.18
2022-11-29T11:53:37.629Z,7.07
2022-11-29T11:56:14.435Z,6.85
2022-11-29T11:58:57.136Z,6.91
2022-11-29T12:01:39.545Z,7.25
2022-11-29T12:04:35.565Z,6.64
2022-11-29T12:07:59.740Z,7.17
2022-11-29T12:10:30.373Z,7.56
2022-11-29T12:13:04.606Z,7.40
2022-11-29T12:15:44.129Z,7.24
2022-11-29T12:18:50.095Z,7.12
2022-11-29T12:21:31.876Z,6.86
2022-11-29T12:24:27.555Z,7.20
2022-11-29T12:27:05.413Z,7.23
2022-11-29T12:29:38.334Z,7.32
2022-11-29T12:32:17.051Z,7.03
2022-11-29T12:34:58.629Z,7.35
2022-11-29T12:37:56.261Z,7.98
2022-11-29T12:41:18.350Z,7.82
2022-11-29T12:44:12.845Z,8.09
2022-11-29T12:50:18.459Z,7.83
2022-11-29T12:53:16.280Z,7.76
2022-11-29T12:56:16.258Z,7.74
2022-11-29T12:59:29.354Z,8.07
2022-11-29T13:02:34.370Z,7.91
2022-11-29T13:05:27.919Z,7.95
2022-11-29T13:08:38.130Z,7.58
2022-11-29T13:11:34.436Z,7.45
2022-11-29T13:14:44.025Z,7.47
2022-11-29T13:17:48.291Z,7.69
2022-11-29T13:20:42.749Z,7.00
2022-11-29T13:24:07.974Z,7.36
2022-11-29T13:26:41.939Z,7.32
2022-11-29T13:29:18.282Z,7.75
2022-11-29T13:31:52.058Z,7.77
2022-11-29T13:34:39.428Z,7.67
2022-11-29T13:38:16.463Z,7.55
2022-11-29T13:41:03.651Z,7.58
2022-11-29T13:43:54.344Z,7.24
2022-11-29T13:46:43.556Z,7.63
2022-11-29T13:49:52.991Z,7.57
2022-11-29T13:52:43.921Z,7.80
2022-11-29T13:55:29.030Z,7.71
2022-11-29T13:58:30.888Z,7.51
2022-11-29T14:01:11.594Z,7.76
2022-11-29T14:04:05.525Z,7.82
2022-11-29T14:06:39.278Z,7.59
2022-11-29T14:09:32.135Z,7.92
2022-11-29T14:12:21.898Z,7.84
2022-11-29T14:15:02.791Z,7.56
2022-11-29T14:17:59.447Z,7.95
2022-11-29T14:20:32.447Z,7.85
2022-11-29T14:23:05.009Z,7.91
2022-11-29T14:25:56.386Z,7.85
2022-11-29T14:28:38.753Z,7.68
2022-11-29T14:31:11.646Z,7.68
2022-11-29T14:33:47.475Z,7.58
2022-11-29T14:36:54.377Z,7.74
2022-11-29T14:39:41.292Z,7.83
2022-11-29T14:42:21.891Z,7.92
2022-11-29T14:45:06.304Z,7.80
2022-11-29T14:47:49.233Z,7.89
2022-11-29T14:50:40.194Z,8.04
2022-11-29T14:53:35.645Z,8.14
2022-11-29T14:56:34.760Z,8.00
2022-11-29T14:59:45.065Z,7.85
2022-11-29T15:02:34.830Z,7.83
2022-11-29T15:05:34.920Z,7.94
2022-11-29T15:08:17.429Z,7.97
2022-11-29T15:11:22.790Z,8.11
2022-11-29T15:14:07.537Z,8.12
2022-11-29T15:17:24.955Z,8.24
2022-11-29T15:20:17.443Z,8.34
2022-11-29T15:22:58.300Z,7.95
2022-11-29T15:25:33.484Z,8.26
2022-11-29T15:28:06.403Z,8.38
2022-11-29T15:30:42.450Z,8.31
2022-11-29T15:33:25.657Z,8.34
2022-11-29T15:36:06.410Z,8.40
2022-11-29T15:38:49.110Z,8.19
2022-11-29T15:41:35.621Z,8.28
2022-11-29T15:44:23.191Z,8.22
2022-11-29T15:46:55.979Z,8.33
2022-11-29T15:49:30.597Z,8.02
2022-11-29T15:52:20.242Z,8.10
2022-11-29T15:55:05.582Z,8.18
2022-11-29T15:57:53.315Z,8.19
2022-11-29T16:00:28.306Z,8.06
2022-11-29T16:03:04.509Z,7.78
2022-11-29T16:05:39.401Z,8.00
2022-11-29T16:08:20.954Z,8.13
2022-11-29T16:10:54.642Z,8.05
2022-11-29T16:13:41.857Z,8.05
2022-11-29T16:16:20.806Z,7.99
2022-11-29T16:18:54.522Z,8.03
2022-11-29T16:21:31.397Z,7.97
2022-11-29T16:24:34.278Z,7.30
2022-11-29T16:27:08.366Z,7.74
2022-11-29T16:29:46.708Z,7.85
2022-11-29T16:32:35.761Z,7.89
2022-11-29T16:35:20.834Z,8.01
2022-11-29T16:37:54.261Z,7.87
2022-11-29T16:40:30.628Z,7.88
2022-11-29T16:43:03.391Z,7.98
2022-11-29T16:45:41.965Z,8.02
2022-11-29T16:48:25.526Z,7.71
2022-11-29T16:51:23.928Z,7.93
2022-11-29T16:54:23.749Z,7.91
2022-11-29T16:57:28.373Z,7.99
2022-11-29T17:00:05.793Z,8.00
2022-11-29T17:02:51.688Z,7.99
2022-11-29T17:05:24.912Z,7.89
2022-11-29T17:07:57.972Z,7.94
2022-11-29T17:10:31.206Z,7.47
2022-11-29T17:13:04.797Z,7.70
2022-11-29T17:15:37.676Z,7.96
2022-11-29T17:18:10.501Z,8.00
2022-11-29T17:20:43.504Z,7.84
2022-11-29T17:23:16.149Z,7.79
2022-11-29T17:26:02.698Z,7.87
2022-11-29T17:28:35.379Z,7.85
2022-11-29T17:31:14.508Z,7.96
2022-11-29T17:33:47.885Z,8.08
2022-11-29T17:36:21.744Z,8.11
2022-11-29T17:38:54.383Z,8.10
2022-11-29T17:41:28.400Z,8.17
2022-11-29T17:44:02.159Z,8.11
2022-11-29T17:46:37.064Z,8.11
2022-11-29T17:49:10.894Z,8.08
2022-11-29T17:51:51.611Z,7.87
2022-11-29T17:54:24.795Z,8.07
2022-11-29T17:56:57.392Z,7.93
2022-11-29T17:59:30.499Z,7.87
2022-11-29T18:02:04.007Z,7.92
2022-11-29T18:04:37.645Z,7.86
2022-11-29T18:07:10.501Z,7.77
2022-11-29T18:09:44.281Z,7.79
2022-11-29T18:12:17.730Z,7.77
2022-11-29T18:14:51.018Z,7.64
2022-11-29T18:17:23.763Z,7.70
2022-11-29T18:19:56.449Z,7.73
2022-11-29T18:22:29.209Z,7.70
2022-11-29T18:25:30.638Z,7.48
2022-11-29T18:27:57.386Z,7.53
2022-11-29T18:30:30.208Z,7.44
2022-11-29T18:33:02.997Z,7.54
2022-11-29T18:35:35.943Z,7.50
2022-11-29T18:38:16.534Z,7.44
2022-11-29T18:40:49.584Z,7.35
2022-11-29T18:43:22.379Z,7.19
2022-11-29T18:45:55.431Z,7.24
2022-11-29T18:48:30.355Z,7.29
2022-11-29T18:51:06.261Z,7.17
2022-11-29T18:53:40.714Z,6.88
2022-11-29T18:56:22.830Z,7.01
2022-11-29T18:59:01.852Z,7.02
2022-11-29T19:01:41.401Z,7.10
2022-11-29T19:04:19.984Z,7.45
2022-11-29T19:06:52.815Z,7.39
2022-11-29T19:09:25.777Z,7.39
2022-11-29T19:11:58.574Z,7.16
2022-11-29T19:14:32.463Z,7.22
2022-11-29T19:17:05.322Z,7.28
2022-11-29T19:19:38.455Z,7.51
2022-11-29T19:22:11.417Z,7.48
2022-11-29T19:24:44.675Z,7.53
2022-11-29T19:27:17.704Z,7.57
2022-11-29T19:29:51.133Z,7.55
2022-11-29T19:32:24.219Z,7.39
2022-11-29T19:34:57.765Z,7.41
2022-11-29T19:37:31.039Z,7.36
2022-11-29T19:40:05.037Z,7.16
2022-11-29T19:42:38.137Z,7.04
2022-11-29T19:45:18.885Z,7.23
2022-11-29T19:47:53.204Z,7.06
2022-11-29T19:50:26.345Z,7.24
2022-11-29T19:52:59.878Z,7.01
2022-11-29T19:55:34.092Z,7.26
2022-11-29T19:58:07.286Z,7.08
2022-11-29T20:00:40.201Z,7.35
2022-11-29T20:03:13.429Z,6.69
2022-11-29T20:05:55.729Z,6.95
2022-11-29T20:08:30.248Z,6.98
2022-11-29T20:11:11.167Z,6.85
2022-11-29T20:13:46.921Z,7.01
2022-11-29T20:16:20.332Z,7.04
2022-11-29T20:18:53.937Z,6.93
2022-11-29T20:21:31.208Z,6.81
2022-11-29T20:24:07.978Z,6.84
2022-11-29T20:26:43.620Z,7.08
2022-11-29T20:29:17.899Z,7.04
2022-11-29T20:31:51.545Z,7.09
2022-11-29T20:34:24.806Z,6.93
2022-11-29T20:37:30.248Z,6.89
2022-11-29T20:40:16.809Z,6.65
2022-11-29T20:43:15.774Z,6.74
2022-11-29T20:45:49.242Z,6.77
2022-11-29T20:48:23.495Z,6.75
2022-11-29T20:51:02.517Z,6.75
2022-11-29T20:53:43.111Z,6.86
2022-11-29T20:56:16.156Z,6.70
2022-11-29T20:58:49.390Z,6.67
2022-11-29T21:01:22.311Z,6.51
2022-11-29T21:03:55.334Z,6.73
2022-11-29T21:06:28.136Z,6.71
2022-11-29T21:09:00.912Z,6.50
2022-11-29T21:11:33.901Z,6.53
2022-11-29T21:14:09.349Z,6.75
2022-11-29T21:16:42.604Z,6.74
2022-11-29T21:19:22.677Z,6.57
2022-11-29T21:22:22.479Z,6.88
2022-11-29T21:25:24.968Z,6.56
2022-11-29T21:27:58.225Z,6.74
2022-11-29T21:30:31.270Z,6.94
2022-11-29T21:33:04.756Z,6.64
2022-11-29T21:35:40.100Z,6.68
2022-11-29T21:38:20.720Z,6.81
2022-11-29T21:40:53.483Z,6.88
2022-11-29T21:43:58.023Z,6.99
2022-11-29T21:46:19.052Z,6.59
2022-11-29T21:48:52.969Z,6.84
2022-11-29T21:51:25.612Z,6.83
2022-11-29T21:53:58.152Z,6.76
2022-11-29T21:56:30.718Z,6.77
2022-11-29T21:59:03.696Z,6.98
2022-11-29T22:01:36.658Z,7.05
2022-11-29T22:04:09.541Z,6.81
2022-11-29T22:06:42.286Z,7.00
2022-11-29T22:09:18.110Z,7.08
2022-11-29T22:11:50.967Z,7.04
2022-11-29T22:14:24.486Z,7.09
2022-11-29T22:17:00.643Z,6.89
2022-11-29T22:19:35.210Z,7.05
2022-11-29T22:22:10.817Z,7.14
2022-11-29T22:24:43.743Z,7.03
2022-11-29T22:27:18.537Z,7.11
2022-11-29T22:29:51.216Z,7.18
2022-11-29T22:32:23.937Z,6.96
2022-11-29T22:34:56.598Z,6.97
2022-11-29T22:37:29.284Z,6.85
2022-11-29T22:40:01.794Z,6.82
2022-11-29T22:42:34.426Z,6.90
2022-11-29T22:45:08.214Z,6.92
2022-11-29T22:47:41.021Z,7.12
2022-11-29T22:50:14.038Z,7.11
2022-11-29T22:52:46.763Z,6.97
2022-11-29T22:55:19.529Z,7.03
2022-11-29T22:57:53.824Z,7.02
2022-11-29T23:00:26.565Z,7.09
2022-11-29T23:02:59.312Z,6.88
2022-11-29T23:05:33.126Z,7.08
2022-11-29T23:08:05.973Z,6.88
2022-11-29T23:10:38.773Z,6.78
2022-11-29T23:13:11.405Z,7.08
2022-11-29T23:15:44.068Z,6.77
2022-11-29T23:18:16.689Z,6.81
2022-11-29T23:20:49.802Z,6.67
2022-11-29T23:23:22.474Z,6.92
2022-11-29T23:25:55.254Z,6.95
2022-11-29T23:28:29.206Z,6.86
2022-11-29T23:31:02.334Z,6.79
2022-11-29T23:33:35.370Z,7.11
2022-11-29T23:36:10.351Z,7.17
2022-11-29T23:38:43.583Z,6.90
2022-11-29T23:41:17.588Z,6.81
2022-11-29T23:43:50.693Z,6.69
2022-11-29T23:46:24.795Z,6.79
2022-11-29T23:48:57.719Z,6.77
2022-11-29T23:51:31.005Z,6.68
2022-11-29T23:54:05.626Z,6.92
2022-11-29T23:56:38.494Z,6.72
2022-11-29T23:59:11.678Z,6.78
